| time (UTC) | temp F | wind direction | speed MPH | gust MPH | rain 1hr in | rain 24hr in | rain mn in | humidity % | barometer mb |
| 20260506044824 | 46 | 297 | 0.0 | 2.0 | 0.00 | 0.00 | 0.02 | 73 | 1012.5 |
| 20260506044320 | 46 | 201 | 2.0 | 2.0 | 0.00 | 0.00 | 0.02 | 73 | 1012.5 |
| 20260506041812 | 46 | 250 | 1.0 | 1.0 | 0.00 | 0.00 | 0.02 | 74 | 1012.4 |
| 20260506041312 | 46 | 288 | 0.0 | 2.0 | 0.00 | 0.00 | 0.02 | 74 | 1012.3 |
| 20260506040814 | 45 | 0 | 0.0 | 0.0 | 0.00 | 0.00 | 0.02 | 74 | 1012.4 |
| 20260506040309 | 45 | 205 | 0.0 | 3.0 | 0.00 | 0.00 | 0.02 | 74 | 1012.3 |
| 20260506034817 | 45 | 342 | 2.0 | 3.0 | 0.00 | 0.00 | 0.02 | 73 | 1012.2 |
| 20260506034304 | 45 | 246 | 1.0 | 4.0 | 0.00 | 0.00 | 0.02 | 72 | 1012.1 |
| 20260506033301 | 46 | 282 | 4.0 | 5.0 | 0.00 | 0.00 | 0.02 | 71 | 1012.1 |
| 20260506032259 | 46 | 319 | 2.0 | 11.0 | 0.00 | 0.00 | 0.02 | 70 | 1012.0 |
| 20260506031256 | 47 | 285 | 3.0 | 5.0 | 0.00 | 0.00 | 0.02 | 67 | 1011.9 |
| 20260506025753 | 48 | 227 | 2.0 | 2.0 | 0.00 | 0.00 | 0.02 | 66 | 1011.6 |
| 20260506025251 | 49 | 205 | 0.0 | 3.0 | 0.00 | 0.00 | 0.02 | 66 | 1011.7 |
| 20260506024249 | 49 | 64 | 0.0 | 3.0 | 0.00 | 0.00 | 0.02 | 65 | 1011.5 |
| 20260506023747 | 49 | 71 | 0.0 | 2.0 | 0.00 | 0.00 | 0.02 | 65 | 1011.7 |
| 20260506023245 | 49 | 86 | 0.0 | 1.0 | 0.00 | 0.00 | 0.02 | 65 | 1011.6 |
| 20260506022243 | 50 | 210 | 0.0 | 1.0 | 0.00 | 0.00 | 0.02 | 64 | 1011.5 |
| 20260506020746 | 50 | 93 | 0.0 | 6.0 | 0.00 | 0.00 | 0.02 | 64 | 1011.5 |
| 20260506020238 | 51 | 129 | 1.0 | 7.0 | 0.00 | 0.00 | 0.02 | 63 | 1011.3 |
| 20260506013331 | 51 | 61 | 2.0 | 3.0 | 0.00 | 0.00 | 0.02 | 64 | 1011.0 |
| 20260506012326 | 51 | 140 | 0.0 | 0.0 | 0.00 | 0.00 | 0.02 | 63 | 1011.1 |
| 20260506011326 | 51 | 184 | 2.0 | 3.0 | 0.00 | 0.00 | 0.02 | 63 | 1011.0 |
| 20260506010329 | 51 | 24 | 0.0 | 0.0 | 0.00 | 0.00 | 0.02 | 63 | 1010.9 |
| 20260506005319 | 51 | 71 | 0.0 | 1.0 | 0.00 | 0.00 | 0.02 | 63 | 1010.9 |
| 20260506004316 | 51 | 55 | 1.0 | 3.0 | 0.00 | 0.00 | 0.02 | 62 | 1011.0 |
| 20260506003815 | 51 | 143 | 0.0 | 4.0 | 0.00 | 0.00 | 0.02 | 62 | 1010.9 |
| 20260506002313 | 52 | 169 | 0.0 | 2.0 | 0.00 | 0.00 | 0.02 | 60 | 1010.8 |
| 20260506000807 | 54 | 153 | 4.0 | 4.0 | 0.00 | 0.00 | 0.02 | 59 | 1010.7 |
| 20260505235807 | 54 | 139 | 2.0 | 2.0 | 0.00 | 0.00 | 0.02 | 60 | 1010.6 |
| 20260505233304 | 53 | 49 | 6.0 | 9.0 | 0.00 | 0.00 | 0.02 | 61 | 1010.6 |
| 20260505232255 | 53 | 63 | 1.0 | 6.0 | 0.00 | 0.00 | 0.02 | 61 | 1010.5 |
| 20260505231754 | 53 | 75 | 1.0 | 4.0 | 0.00 | 0.00 | 0.02 | 61 | 1010.5 |
| 20260505230319 | 53 | 66 | 10.0 | 11.0 | 0.00 | 0.00 | 0.02 | 61 | 1010.4 |
| 20260505230211 | 53 | 79 | 2.0 | 11.0 | 0.00 | 0.00 | 0.02 | 61 | 1010.4 |
| 20260505225705 | 53 | 33 | 4.0 | 7.0 | 0.00 | 0.00 | 0.02 | 61 | 1010.4 |
| 20260505225205 | 53 | 71 | 2.0 | 9.0 | 0.00 | 0.00 | 0.02 | 61 | 1010.4 |
| 20260505224203 | 53 | 55 | 2.0 | 7.0 | 0.00 | 0.00 | 0.02 | 62 | 1010.3 |
| 20260505221159 | 51 | 247 | 0.0 | 4.0 | 0.00 | 0.00 | 0.02 | 63 | 1010.4 |
| 20260505220154 | 50 | 128 | 1.0 | 5.0 | 0.00 | 0.00 | 0.02 | 62 | 1010.4 |
| 20260505215653 | 50 | 308 | 1.0 | 3.0 | 0.00 | 0.00 | 0.02 | 62 | 1010.4 |
| 20260505215149 | 50 | 141 | 0.0 | 3.0 | 0.00 | 0.00 | 0.02 | 62 | 1010.4 |
| 20260505212647 | 50 | 159 | 4.0 | 4.0 | 0.00 | 0.00 | 0.02 | 62 | 1010.6 |
| 20260505211642 | 50 | 164 | 7.0 | 8.0 | 0.00 | 0.00 | 0.02 | 62 | 1010.5 |
| 20260505204133 | 49 | 139 | 1.0 | 5.0 | 0.00 | 0.00 | 0.02 | 64 | 1010.4 |
| 20260505202629 | 49 | 164 | 0.0 | 4.0 | 0.00 | 0.00 | 0.02 | 65 | 1010.3 |
| 20260505202130 | 49 | 205 | 1.0 | 6.0 | 0.00 | 0.00 | 0.02 | 65 | 1010.3 |
| 20260505201122 | 48 | 252 | 3.0 | 6.0 | 0.00 | 0.00 | 0.02 | 66 | 1010.3 |
| 20260505200121 | 48 | 236 | 4.0 | 5.0 | 0.00 | 0.00 | 0.02 | 66 | 1010.3 |
| 20260505195621 | 48 | 295 | 5.0 | 6.0 | 0.00 | 0.00 | 0.02 | 66 | 1010.3 |
| 20260505195119 | 48 | 240 | 5.0 | 6.0 | 0.00 | 0.00 | 0.02 | 67 | 1010.3 |
| 20260505193614 | 48 | 239 | 2.0 | 4.0 | 0.00 | 0.00 | 0.02 | 70 | 1010.3 |
| 20260505193113 | 47 | 250 | 2.0 | 3.0 | 0.00 | 0.00 | 0.02 | 71 | 1010.2 |
| 20260505192611 | 47 | 180 | 1.0 | 2.0 | 0.00 | 0.00 | 0.02 | 71 | 1010.2 |
| 20260505190608 | 46 | 159 | 1.0 | 3.0 | 0.00 | 0.00 | 0.02 | 72 | 1010.3 |
| 20260505190106 | 46 | 250 | 1.0 | 4.0 | 0.00 | 0.00 | 0.01 | 73 | 1010.3 |
| 20260505185608 | 46 | 250 | 4.0 | 5.0 | 0.00 | 0.00 | 0.01 | 73 | 1010.3 |
| 20260505175546 | 43 | 343 | 0.0 | 1.0 | 0.00 | 0.00 | 0.70 | 77 | 1009.8 |
| 20260505174543 | 43 | 345 | 0.0 | 1.0 | 0.00 | 0.00 | 0.66 | 78 | 1009.8 |
| 20260505174041 | 42 | 205 | 1.0 | 1.0 | 0.00 | 0.00 | 0.64 | 78 | 1009.6 |
| 20260505173539 | 42 | 115 | 0.0 | 0.0 | 0.00 | 0.00 | 0.62 | 78 | 1009.6 |
| 20260505172041 | 41 | 157 | 1.0 | 2.0 | 0.00 | 0.00 | 0.58 | 80 | 1009.6 |
| 20260505170533 | 41 | 212 | 2.0 | 2.0 | 0.00 | 0.00 | 0.52 | 81 | 1009.4 |
| 20260505170131 | 40 | 250 | 2.0 | 3.0 | 0.00 | 0.00 | 0.51 | 81 | 1009.3 |
| 20260505170033 | 40 | 250 | 2.0 | 3.0 | 0.00 | 0.00 | 0.51 | 81 | 1009.3 |
| 20260505165030 | 40 | 296 | 0.0 | 1.0 | 0.00 | 0.00 | 0.48 | 82 | 1009.3 |
| 20260505164026 | 39 | 205 | 0.0 | 1.0 | 0.00 | 0.00 | 0.46 | 82 | 1009.3 |
| 20260505163024 | 38 | 326 | 1.0 | 1.0 | 0.00 | 0.00 | 0.44 | 83 | 1009.2 |
| 20260505162522 | 38 | 250 | 0.0 | 1.0 | 0.00 | 0.00 | 0.42 | 83 | 1009.2 |
| 20260505162021 | 38 | 340 | 0.0 | 2.0 | 0.00 | 0.00 | 0.41 | 83 | 1009.2 |
| 20260505161520 | 37 | 341 | 1.0 | 1.0 | 0.00 | 0.00 | 0.39 | 83 | 1009.2 |
| 20260505161018 | 37 | 295 | 1.0 | 2.0 | 0.00 | 0.00 | 0.38 | 83 | 1009.2 |
| 20260505160517 | 37 | 340 | 0.0 | 1.0 | 0.00 | 0.00 | 0.37 | 83 | 1009.1 |
| 20260505153011 | 36 | 344 | 0.0 | 2.0 | 0.00 | 0.00 | 0.31 | 85 | 1008.7 |
| 20260505140448 | 34 | 205 | 0.0 | 0.0 | 0.00 | 0.00 | 0.28 | 85 | 1008.3 |
| 20260505124928 | 34 | 23 | 0.0 | 0.0 | 0.00 | 0.00 | 0.28 | 84 | 1008.0 |
| 20260505124425 | 34 | 23 | 0.0 | 0.0 | 0.00 | 0.00 | 0.28 | 84 | 1008.0 |
| 20260505123424 | 34 | 23 | 0.0 | 0.0 | 0.00 | 0.00 | 0.28 | 84 | 1008.0 |
| 20260505122922 | 34 | 23 | 0.0 | 0.0 | 0.00 | 0.00 | 0.28 | 84 | 1008.1 |
| 20260505122421 | 34 | 23 | 0.0 | 0.0 | 0.00 | 0.00 | 0.28 | 84 | 1008.0 |
| 20260505121918 | 33 | 24 | 0.0 | 0.0 | 0.00 | 0.00 | 0.28 | 84 | 1008.0 |
| 20260505121418 | 34 | 47 | 0.0 | 0.0 | 0.00 | 0.00 | 0.28 | 84 | 1008.0 |
| 20260505120916 | 34 | 47 | 0.0 | 0.0 | 0.00 | 0.00 | 0.28 | 84 | 1007.9 |
| 20260505120415 | 34 | 47 | 0.0 | 0.0 | 0.00 | 0.00 | 0.28 | 84 | 1008.1 |
| 20260505115914 | 34 | 68 | 0.0 | 0.0 | 0.00 | 0.00 | 0.28 | 84 | 1008.0 |
| 20260505115412 | 34 | 63 | 0.0 | 0.0 | 0.00 | 0.00 | 0.28 | 84 | 1007.8 |
| 20260505113909 | 34 | 65 | 0.0 | 0.0 | 0.00 | 0.00 | 0.28 | 84 | 1007.9 |
| 20260505113407 | 34 | 68 | 0.0 | 0.0 | 0.00 | 0.00 | 0.28 | 84 | 1007.9 |
| 20260505112907 | 34 | 67 | 0.0 | 0.0 | 0.00 | 0.00 | 0.28 | 84 | 1007.9 |
| 20260505110400 | 33 | 65 | 0.0 | 0.0 | 0.00 | 0.00 | 0.28 | 84 | 1008.0 |
| 20260505101348 | 33 | 66 | 0.0 | 0.0 | 0.00 | 0.00 | 0.28 | 84 | 1008.1 |
| 20260505100848 | 33 | 68 | 0.0 | 0.0 | 0.00 | 0.00 | 0.28 | 84 | 1008.1 |
| 20260505100343 | 33 | 67 | 0.0 | 0.0 | 0.00 | 0.00 | 0.28 | 84 | 1008.1 |
| 20260505095341 | 33 | 63 | 0.0 | 0.0 | 0.00 | 0.00 | 0.28 | 84 | 1008.1 |
| 20260505094838 | 33 | 67 | 0.0 | 0.0 | 0.00 | 0.00 | 0.28 | 84 | 1008.1 |
| 20260505094339 | 33 | 66 | 0.0 | 0.0 | 0.00 | 0.00 | 0.28 | 84 | 1008.3 |
| 20260505093335 | 34 | 68 | 0.0 | 0.0 | 0.00 | 0.00 | 0.28 | 83 | 1008.5 |
| 20260505092835 | 34 | 68 | 0.0 | 0.0 | 0.00 | 0.00 | 0.28 | 83 | 1008.4 |
| 20260505092333 | 34 | 63 | 0.0 | 0.0 | 0.00 | 0.00 | 0.28 | 83 | 1008.4 |
| 20260505091330 | 34 | 68 | 0.0 | 0.0 | 0.00 | 0.00 | 0.28 | 83 | 1008.4 |
| 20260505084830 | 34 | 65 | 0.0 | 0.0 | 0.00 | 0.00 | 0.28 | 83 | 1008.5 |
| 20260505084322 | 34 | 67 | 0.0 | 0.0 | 0.00 | 0.00 | 0.28 | 83 | 1008.4 |
| 20260505083320 | 34 | 65 | 0.0 | 0.0 | 0.00 | 0.00 | 0.28 | 83 | 1008.6 |
| 20260505082317 | 34 | 65 | 0.0 | 0.0 | 0.00 | 0.00 | 0.28 | 83 | 1008.7 |
| 20260505081316 | 34 | 65 | 0.0 | 0.0 | 0.00 | 0.00 | 0.28 | 83 | 1008.7 |
| 20260505080813 | 34 | 65 | 0.0 | 0.0 | 0.00 | 0.00 | 0.28 | 83 | 1008.7 |
| 20260505080312 | 34 | 66 | 0.0 | 0.0 | 0.00 | 0.00 | 0.28 | 83 | 1008.9 |
| 20260505075811 | 34 | 66 | 0.0 | 0.0 | 0.00 | 0.00 | 0.28 | 83 | 1008.8 |
| 20260505075309 | 34 | 67 | 0.0 | 0.0 | 0.00 | 0.00 | 0.28 | 83 | 1008.8 |
| 20260505074808 | 34 | 66 | 0.0 | 0.0 | 0.00 | 0.00 | 0.28 | 83 | 1009.0 |
| 20260505074312 | 34 | 65 | 0.0 | 0.0 | 0.00 | 0.00 | 0.28 | 83 | 1009.0 |
| 20260505073806 | 34 | 67 | 0.0 | 0.0 | 0.00 | 0.00 | 0.28 | 83 | 1009.0 |
| 20260505073304 | 34 | 68 | 0.0 | 0.0 | 0.00 | 0.00 | 0.28 | 84 | 1008.9 |
| 20260505070758 | 34 | 61 | 0.0 | 0.0 | 0.00 | 0.00 | 0.28 | 84 | 1008.5 |
| 20260505070257 | 34 | 64 | 0.0 | 0.0 | 0.00 | 0.00 | 0.28 | 84 | 1008.4 |
| 20260505065757 | 34 | 65 | 0.0 | 0.0 | 0.00 | 0.00 | 0.28 | 84 | 1008.4 |
| 20260505064756 | 33 | 64 | 0.0 | 0.0 | 0.00 | 0.00 | 0.28 | 85 | 1008.4 |
| 20260505064252 | 33 | 69 | 0.0 | 0.0 | 0.00 | 0.00 | 0.28 | 85 | 1008.5 |
| 20260505062249 | 33 | 64 | 0.0 | 0.0 | 0.00 | 0.00 | 0.28 | 85 | 1008.6 |
| 20260505061745 | 33 | 65 | 0.0 | 0.0 | 0.00 | 0.00 | 0.28 | 85 | 1008.6 |
| 20260505061247 | 33 | 68 | 0.0 | 0.0 | 0.00 | 0.00 | 0.28 | 85 | 1008.6 |
| 20260505060241 | 33 | 66 | 0.0 | 0.0 | 0.00 | 0.00 | 0.28 | 85 | 1008.7 |
| 20260505055742 | 33 | 67 | 0.0 | 0.0 | 0.00 | 0.00 | 0.28 | 84 | 1008.7 |
| 20260505055238 | 33 | 65 | 0.0 | 0.0 | 0.00 | 0.00 | 0.28 | 84 | 1008.7 |